createdAt,value
2023-09-21T00:01:44.874Z,21.90
2023-09-21T00:04:12.073Z,21.80
2023-09-21T00:06:39.380Z,21.90
2023-09-21T00:09:06.600Z,21.80
2023-09-21T00:11:42.415Z,21.70
2023-09-21T00:14:10.266Z,21.70
2023-09-21T00:16:37.256Z,21.80
2023-09-21T00:19:18.725Z,21.70
2023-09-21T00:21:45.842Z,21.70
2023-09-21T00:24:13.956Z,21.80
2023-09-21T00:26:42.168Z,21.70
2023-09-21T00:29:09.131Z,21.70
2023-09-21T00:31:36.259Z,21.80
2023-09-21T00:34:03.266Z,21.80
2023-09-21T00:36:30.905Z,21.70
2023-09-21T00:38:58.064Z,21.70
2023-09-21T00:41:27.213Z,21.80
2023-09-21T00:43:54.196Z,21.80
2023-09-21T00:46:23.236Z,21.70
2023-09-21T00:48:51.518Z,21.70
2023-09-21T00:51:18.602Z,21.70
2023-09-21T00:53:47.072Z,21.60
2023-09-21T00:56:18.759Z,21.60
2023-09-21T00:58:49.438Z,21.50
2023-09-21T01:01:17.800Z,21.50
2023-09-21T01:03:46.764Z,21.20
2023-09-21T01:06:18.291Z,21.20
2023-09-21T01:08:45.936Z,21.10
2023-09-21T01:11:15.730Z,21.00
2023-09-21T01:13:43.233Z,21.00
2023-09-21T01:16:12.957Z,21.00
2023-09-21T01:18:42.781Z,21.00
2023-09-21T01:21:11.512Z,20.90
2023-09-21T01:23:44.025Z,20.90
2023-09-21T01:26:14.929Z,20.80
2023-09-21T01:28:42.318Z,20.80
2023-09-21T01:31:14.739Z,20.70
2023-09-21T01:33:43.651Z,20.60
2023-09-21T01:36:16.848Z,20.60
2023-09-21T01:38:48.492Z,20.60
2023-09-21T01:41:17.554Z,20.60
2023-09-21T01:43:45.745Z,20.50
2023-09-21T01:46:14.292Z,20.40
2023-09-21T01:48:41.371Z,20.50
2023-09-21T01:51:09.091Z,20.40
2023-09-21T01:53:36.605Z,20.40
2023-09-21T01:56:03.884Z,20.40
2023-09-21T01:58:31.008Z,20.10
2023-09-21T02:00:57.919Z,20.10
2023-09-21T02:03:29.698Z,20.10
2023-09-21T02:05:59.285Z,20.00
2023-09-21T02:08:27.318Z,20.00
2023-09-21T02:10:54.602Z,20.00
2023-09-21T02:13:21.891Z,20.00
2023-09-21T02:15:53.620Z,19.90
2023-09-21T02:18:21.583Z,19.90
2023-09-21T02:20:56.034Z,19.90
2023-09-21T02:23:24.725Z,19.80
2023-09-21T02:25:53.552Z,19.70
2023-09-21T02:28:22.162Z,19.60
2023-09-21T02:30:50.184Z,19.70
2023-09-21T02:33:18.313Z,19.60
2023-09-21T02:35:48.494Z,19.40
2023-09-21T02:38:18.878Z,19.30
2023-09-21T02:40:47.361Z,19.20
2023-09-21T02:43:16.553Z,19.10
2023-09-21T02:45:46.385Z,19.00
2023-09-21T02:48:13.963Z,19.00
2023-09-21T02:50:41.877Z,19.00
2023-09-21T02:53:11.869Z,19.00
2023-09-21T02:55:40.834Z,19.00
2023-09-21T02:58:12.415Z,18.90
2023-09-21T03:00:45.391Z,18.70
2023-09-21T03:03:14.740Z,18.60
2023-09-21T03:05:47.553Z,18.40
2023-09-21T03:08:15.853Z,18.40
2023-09-21T03:10:47.003Z,18.50
2023-09-21T03:13:21.569Z,18.50
2023-09-21T03:15:54.496Z,18.60
2023-09-21T03:18:22.765Z,18.50
2023-09-21T03:20:53.407Z,18.50
2023-09-21T03:25:51.697Z,18.60
2023-09-21T03:28:24.078Z,18.50
2023-09-21T03:30:54.013Z,18.50
2023-09-21T03:33:22.940Z,18.50
2023-09-21T03:35:50.764Z,18.60
2023-09-21T03:38:20.652Z,18.60
2023-09-21T03:40:49.899Z,18.70
2023-09-21T03:43:17.418Z,18.70
2023-09-21T03:45:45.799Z,18.70
2023-09-21T03:48:13.914Z,18.80
2023-09-21T03:50:42.986Z,18.60
2023-09-21T03:53:11.204Z,18.60
2023-09-21T03:55:40.303Z,18.60
2023-09-21T03:58:09.506Z,18.60
2023-09-21T04:00:37.488Z,18.70
2023-09-21T04:03:10.748Z,18.80
2023-09-21T04:05:43.782Z,18.60
2023-09-21T04:08:11.298Z,18.40
2023-09-21T04:10:38.484Z,18.30
2023-09-21T04:13:07.280Z,18.10
2023-09-21T04:15:35.176Z,18.10
2023-09-21T04:18:03.807Z,18.10
2023-09-21T04:20:37.428Z,18.00
2023-09-21T04:23:05.451Z,17.90
2023-09-21T04:25:34.354Z,17.60
2023-09-21T04:28:05.170Z,17.50
2023-09-21T04:30:36.880Z,17.50
2023-09-21T04:33:07.242Z,17.50
2023-09-21T04:35:34.255Z,17.60
2023-09-21T04:38:01.902Z,17.50
2023-09-21T04:40:28.969Z,17.40
2023-09-21T04:42:56.532Z,17.40
2023-09-21T04:45:23.914Z,17.00
2023-09-21T04:47:53.820Z,17.10
2023-09-21T04:50:20.866Z,17.10
2023-09-21T04:52:51.009Z,17.10
2023-09-21T04:55:18.895Z,17.00
2023-09-21T04:57:46.904Z,16.90
2023-09-21T05:00:18.175Z,16.90
2023-09-21T05:02:46.062Z,16.90
2023-09-21T05:05:15.627Z,17.00
2023-09-21T05:07:43.411Z,17.00
2023-09-21T05:10:13.683Z,17.00
2023-09-21T05:12:41.517Z,17.10
2023-09-21T05:15:10.692Z,17.00
2023-09-21T05:17:38.174Z,17.20
2023-09-21T05:20:06.939Z,17.30
2023-09-21T05:22:34.667Z,17.30
2023-09-21T05:25:02.327Z,17.10
2023-09-21T05:27:31.184Z,17.20
2023-09-21T05:30:02.554Z,17.10
2023-09-21T05:32:38.133Z,17.10
2023-09-21T05:35:07.422Z,17.00
2023-09-21T05:37:37.215Z,16.90
2023-09-21T05:40:12.791Z,17.00
2023-09-21T05:42:40.338Z,17.10
2023-09-21T05:45:08.298Z,17.00
2023-09-21T05:47:35.435Z,17.00
2023-09-21T05:50:02.684Z,16.90
2023-09-21T05:52:33.992Z,16.90
2023-09-21T05:55:02.297Z,17.00
2023-09-21T05:57:29.359Z,16.90
2023-09-21T05:59:56.591Z,16.80
2023-09-21T06:02:24.981Z,16.80
2023-09-21T06:04:52.339Z,16.80
2023-09-21T06:07:19.291Z,17.00
2023-09-21T06:09:47.209Z,16.90
2023-09-21T06:12:14.500Z,16.90
2023-09-21T06:14:42.749Z,16.90
2023-09-21T06:17:14.575Z,16.90
2023-09-21T06:19:45.510Z,16.90
2023-09-21T06:22:14.045Z,16.90
2023-09-21T06:24:43.602Z,16.90
2023-09-21T06:27:10.887Z,16.90
2023-09-21T06:29:37.897Z,16.90
2023-09-21T06:32:13.143Z,16.90
2023-09-21T06:34:44.388Z,16.90
2023-09-21T06:37:13.045Z,16.90
2023-09-21T06:39:43.224Z,17.00
2023-09-21T06:42:10.431Z,17.00
2023-09-21T06:44:38.301Z,17.00
2023-09-21T06:47:05.559Z,17.00
2023-09-21T06:49:35.694Z,17.00
2023-09-21T06:52:04.581Z,17.20
2023-09-21T06:54:32.792Z,17.10
2023-09-21T06:57:05.814Z,17.10
2023-09-21T06:59:39.752Z,17.10
2023-09-21T07:02:07.662Z,17.10
2023-09-21T07:04:36.429Z,17.30
2023-09-21T07:07:07.289Z,17.20
2023-09-21T07:09:37.783Z,17.20
2023-09-21T07:12:07.101Z,17.20
2023-09-21T07:14:37.138Z,17.10
2023-09-21T07:17:07.775Z,17.00
2023-09-21T07:19:38.615Z,17.00
2023-09-21T07:22:05.825Z,17.00
2023-09-21T07:24:33.206Z,17.00
2023-09-21T07:27:01.853Z,17.20
2023-09-21T07:29:29.238Z,17.20
2023-09-21T07:31:56.343Z,17.30
2023-09-21T07:34:23.308Z,17.30
2023-09-21T07:36:50.309Z,17.40
2023-09-21T07:39:18.141Z,17.40
2023-09-21T07:41:48.084Z,17.50
2023-09-21T07:44:17.481Z,17.60
2023-09-21T07:46:44.948Z,17.40
2023-09-21T07:49:13.383Z,17.20
2023-09-21T07:51:40.693Z,17.30
2023-09-21T07:54:08.055Z,17.30
2023-09-21T07:56:37.602Z,17.40
2023-09-21T07:59:10.963Z,17.40
2023-09-21T08:01:38.494Z,17.40
2023-09-21T08:04:06.551Z,17.30
2023-09-21T08:06:34.572Z,17.30
2023-09-21T08:09:01.668Z,17.50
2023-09-21T08:11:29.102Z,17.40
2023-09-21T08:13:57.160Z,17.40
2023-09-21T08:16:24.442Z,17.50
2023-09-21T08:18:51.750Z,17.30
2023-09-21T08:21:19.378Z,17.10
2023-09-21T08:23:47.592Z,16.90
2023-09-21T08:26:15.321Z,16.80
2023-09-21T08:28:43.157Z,16.80
2023-09-21T08:31:10.852Z,16.60
2023-09-21T08:33:38.226Z,16.30
2023-09-21T08:36:06.687Z,16.10
2023-09-21T08:38:34.106Z,16.00
2023-09-21T08:41:02.262Z,16.00
2023-09-21T08:43:30.829Z,16.20
2023-09-21T08:45:58.935Z,16.20
2023-09-21T08:48:28.067Z,16.30
2023-09-21T08:50:59.303Z,16.30
2023-09-21T08:53:27.352Z,16.30
2023-09-21T08:55:58.243Z,16.30
2023-09-21T08:58:28.726Z,16.40
2023-09-21T09:00:57.787Z,16.50
2023-09-21T09:03:27.190Z,16.40
2023-09-21T09:06:00.012Z,16.30
2023-09-21T09:08:29.206Z,16.30
2023-09-21T09:10:57.252Z,16.30
2023-09-21T09:13:34.019Z,16.40
2023-09-21T09:16:01.631Z,16.30
2023-09-21T09:18:29.062Z,16.40
2023-09-21T09:20:56.604Z,16.50
2023-09-21T09:23:23.608Z,16.40
2023-09-21T09:25:52.354Z,16.50
2023-09-21T09:28:19.874Z,16.50
2023-09-21T09:30:47.303Z,16.40
2023-09-21T09:33:17.241Z,16.40
2023-09-21T09:35:46.563Z,16.30
2023-09-21T09:38:15.539Z,16.40
2023-09-21T09:40:43.994Z,16.30
2023-09-21T09:43:16.472Z,16.30
2023-09-21T09:45:48.099Z,16.30
2023-09-21T09:48:20.827Z,16.30
2023-09-21T09:50:56.407Z,16.20
2023-09-21T09:53:27.623Z,16.30
2023-09-21T09:55:57.515Z,16.30
2023-09-21T09:58:28.335Z,16.30
2023-09-21T10:00:56.897Z,16.20
2023-09-21T10:03:26.763Z,16.10
2023-09-21T10:05:55.889Z,16.10
2023-09-21T10:08:26.925Z,16.30
2023-09-21T10:10:57.581Z,16.40
2023-09-21T10:13:29.208Z,16.40
2023-09-21T10:16:03.217Z,16.50
2023-09-21T10:18:36.684Z,16.50
2023-09-21T10:21:35.397Z,16.50
2023-09-21T10:24:09.755Z,16.60
2023-09-21T10:26:40.124Z,16.70
2023-09-21T10:29:13.259Z,16.80
2023-09-21T10:31:44.681Z,16.90
2023-09-21T10:34:20.256Z,17.00
2023-09-21T10:36:52.353Z,17.10
2023-09-21T10:39:27.628Z,17.10
2023-09-21T10:41:57.079Z,17.10
2023-09-21T10:45:06.268Z,17.00
2023-09-21T10:47:49.262Z,17.00
2023-09-21T10:50:23.226Z,16.90
2023-09-21T10:52:56.835Z,16.90
2023-09-21T10:55:23.935Z,16.90
2023-09-21T10:57:54.602Z,16.90
2023-09-21T11:00:23.619Z,17.10
2023-09-21T11:02:52.714Z,17.10
2023-09-21T11:05:21.514Z,17.20
2023-09-21T11:07:52.420Z,17.10
2023-09-21T11:10:20.041Z,17.10
2023-09-21T11:12:47.142Z,17.20
2023-09-21T11:15:18.657Z,17.20
2023-09-21T11:17:47.483Z,17.20
2023-09-21T11:20:19.430Z,17.20
2023-09-21T11:22:48.651Z,17.20
2023-09-21T11:25:19.413Z,17.20
2023-09-21T11:27:47.026Z,17.20
2023-09-21T11:30:15.008Z,17.20
2023-09-21T11:32:45.065Z,17.20
2023-09-21T11:35:12.950Z,17.20
2023-09-21T11:37:40.152Z,17.20
2023-09-21T11:40:12.845Z,17.40
2023-09-21T11:42:47.325Z,17.40
2023-09-21T11:45:18.676Z,17.40
2023-09-21T11:47:58.406Z,17.40
2023-09-21T11:50:32.130Z,17.30
2023-09-21T11:52:59.756Z,17.50
2023-09-21T11:55:31.661Z,17.50
2023-09-21T11:58:09.837Z,17.70
2023-09-21T12:00:49.983Z,17.70
2023-09-21T12:03:25.086Z,17.70
2023-09-21T12:05:58.101Z,17.70
2023-09-21T12:08:27.903Z,17.70
2023-09-21T12:10:55.214Z,17.60
2023-09-21T12:13:23.105Z,17.70
2023-09-21T12:15:54.117Z,17.80
2023-09-21T12:18:22.871Z,17.90
2023-09-21T12:20:51.397Z,17.80
2023-09-21T12:23:18.709Z,18.00
2023-09-21T12:25:46.987Z,18.10
2023-09-21T12:28:14.211Z,18.20
2023-09-21T12:30:45.693Z,18.10
2023-09-21T12:33:30.567Z,18.20
2023-09-21T12:36:06.379Z,18.10
2023-09-21T12:38:34.658Z,18.20
2023-09-21T12:41:02.057Z,18.20
2023-09-21T12:43:31.679Z,18.30
2023-09-21T12:46:00.308Z,18.30
2023-09-21T12:48:27.486Z,18.60
2023-09-21T12:50:54.559Z,18.40
2023-09-21T12:53:23.194Z,18.50
2023-09-21T12:55:50.369Z,18.40
2023-09-21T12:58:17.466Z,18.40
2023-09-21T13:00:46.697Z,18.30
2023-09-21T13:03:14.985Z,18.40
2023-09-21T13:05:46.141Z,18.40
2023-09-21T13:08:14.025Z,18.40
2023-09-21T13:10:41.541Z,18.50
2023-09-21T13:13:12.157Z,18.50
2023-09-21T13:15:40.190Z,18.30
2023-09-21T13:18:07.565Z,18.30
2023-09-21T13:20:34.586Z,18.40
2023-09-21T13:23:01.661Z,18.40
2023-09-21T13:25:29.120Z,18.70
2023-09-21T13:27:56.237Z,18.60
2023-09-21T13:30:23.262Z,18.50
2023-09-21T13:32:50.777Z,18.50
2023-09-21T13:35:17.952Z,18.40
2023-09-21T13:37:46.090Z,18.40
2023-09-21T13:40:13.329Z,18.40
2023-09-21T13:42:40.965Z,18.60
2023-09-21T13:45:11.209Z,18.60
2023-09-21T13:47:40.963Z,18.50
2023-09-21T13:50:09.482Z,18.60
2023-09-21T13:52:37.832Z,18.50
2023-09-21T13:55:17.140Z,18.40
2023-09-21T13:57:46.140Z,18.40
2023-09-21T14:00:15.961Z,18.50
2023-09-21T14:02:48.358Z,18.60
2023-09-21T14:05:20.322Z,18.50
2023-09-21T14:07:47.923Z,18.40
2023-09-21T14:10:15.894Z,18.40
2023-09-21T14:12:43.208Z,18.50
2023-09-21T14:15:10.877Z,18.40
2023-09-21T14:17:41.622Z,18.30
2023-09-21T14:20:12.613Z,18.20
2023-09-21T14:22:42.014Z,18.20
2023-09-21T14:25:09.998Z,18.10
2023-09-21T14:27:37.594Z,18.30
2023-09-21T14:30:05.632Z,18.40
2023-09-21T14:32:34.062Z,18.10
2023-09-21T14:35:03.345Z,18.20
2023-09-21T14:37:30.589Z,18.20
2023-09-21T14:40:00.634Z,18.00
2023-09-21T14:42:27.863Z,18.10
2023-09-21T14:44:55.523Z,18.00
2023-09-21T14:47:24.226Z,17.80
2023-09-21T14:49:52.100Z,18.00
2023-09-21T14:52:21.151Z,17.90
2023-09-21T14:54:50.248Z,17.90
2023-09-21T14:57:17.449Z,17.80
2023-09-21T14:59:45.156Z,17.80
2023-09-21T15:02:12.702Z,18.00
2023-09-21T15:04:44.369Z,17.90
2023-09-21T15:07:13.963Z,18.10
2023-09-21T15:09:41.423Z,18.10
2023-09-21T15:12:08.938Z,18.10
2023-09-21T15:14:36.318Z,18.00
2023-09-21T15:17:03.486Z,18.10
2023-09-21T15:19:30.577Z,18.00
2023-09-21T15:21:58.013Z,17.90
2023-09-21T15:24:25.251Z,17.70
2023-09-21T15:26:52.860Z,17.60
2023-09-21T15:29:19.841Z,17.60
2023-09-21T15:31:49.379Z,17.60
2023-09-21T15:34:16.797Z,17.60
2023-09-21T15:36:44.058Z,17.60
2023-09-21T15:39:11.097Z,17.60
2023-09-21T15:41:38.436Z,17.60
2023-09-21T15:44:05.821Z,17.60
2023-09-21T15:46:33.754Z,17.50
2023-09-21T15:49:03.926Z,17.50
2023-09-21T15:51:31.362Z,17.20
2023-09-21T15:53:58.989Z,17.40
2023-09-21T15:56:26.039Z,17.30
2023-09-21T15:58:53.031Z,17.50
2023-09-21T16:01:20.037Z,17.40
2023-09-21T16:03:48.462Z,17.30
2023-09-21T16:06:15.869Z,17.20
2023-09-21T16:08:43.529Z,17.40
2023-09-21T16:11:10.803Z,17.40
2023-09-21T16:13:37.922Z,17.40
2023-09-21T16:16:05.160Z,17.10
2023-09-21T16:18:32.283Z,17.10
2023-09-21T16:21:00.336Z,17.00
2023-09-21T16:23:42.698Z,17.10
2023-09-21T16:26:09.841Z,17.20
2023-09-21T16:28:37.424Z,17.10
2023-09-21T16:31:05.200Z,17.20
2023-09-21T16:33:33.096Z,17.10
2023-09-21T16:36:03.120Z,17.30
2023-09-21T16:38:33.633Z,17.20
2023-09-21T16:41:03.054Z,17.20
2023-09-21T16:43:30.095Z,17.20
2023-09-21T16:45:57.463Z,17.00
2023-09-21T16:48:24.553Z,17.00
2023-09-21T16:50:51.601Z,17.10
2023-09-21T16:53:18.517Z,17.10
2023-09-21T16:55:45.554Z,17.20
2023-09-21T16:58:13.109Z,17.10
2023-09-21T17:00:40.457Z,17.10
2023-09-21T17:03:08.071Z,17.10
2023-09-21T17:05:35.192Z,17.30
2023-09-21T17:08:02.681Z,17.30
2023-09-21T17:10:30.904Z,17.20
2023-09-21T17:12:58.262Z,17.20
2023-09-21T17:15:25.706Z,17.30
2023-09-21T17:17:52.853Z,17.30
2023-09-21T17:20:20.049Z,17.40
2023-09-21T17:22:46.985Z,17.10
2023-09-21T17:25:14.051Z,16.90
2023-09-21T17:27:44.088Z,16.70
2023-09-21T17:30:13.341Z,16.60
2023-09-21T17:32:41.021Z,16.70
2023-09-21T17:35:08.777Z,16.80
2023-09-21T17:37:36.176Z,16.70
2023-09-21T17:40:05.444Z,16.80
2023-09-21T17:42:33.619Z,16.70
2023-09-21T17:45:00.711Z,16.50
2023-09-21T17:47:27.670Z,16.70
2023-09-21T17:49:54.642Z,16.50
2023-09-21T17:52:21.696Z,16.50
2023-09-21T17:54:48.679Z,16.50
2023-09-21T17:57:16.209Z,16.30
2023-09-21T17:59:43.559Z,16.40
2023-09-21T18:02:11.471Z,16.50
2023-09-21T18:04:39.538Z,16.60
2023-09-21T18:07:07.027Z,16.70
2023-09-21T18:09:34.025Z,16.80
2023-09-21T18:12:01.015Z,16.80
2023-09-21T18:14:28.117Z,16.60
2023-09-21T18:16:54.994Z,16.30
2023-09-21T18:19:21.957Z,16.50
2023-09-21T18:21:48.976Z,16.60
2023-09-21T18:24:16.024Z,16.70
2023-09-21T18:26:43.378Z,16.70
2023-09-21T18:29:11.718Z,16.60
2023-09-21T18:31:41.403Z,16.60
2023-09-21T18:34:08.888Z,16.50
2023-09-21T18:36:36.184Z,16.50
2023-09-21T18:39:03.221Z,16.40
2023-09-21T18:41:30.319Z,16.40
2023-09-21T18:43:57.621Z,16.40
2023-09-21T18:46:24.916Z,16.40
2023-09-21T18:48:51.936Z,16.30
2023-09-21T18:51:19.377Z,16.30
2023-09-21T18:53:46.405Z,16.30
2023-09-21T18:56:14.611Z,16.30
2023-09-21T18:58:42.246Z,16.30
2023-09-21T19:01:13.326Z,16.40
2023-09-21T19:03:41.120Z,16.40
2023-09-21T19:06:08.921Z,16.30
2023-09-21T19:08:35.952Z,16.00
2023-09-21T19:11:03.603Z,16.00
2023-09-21T19:13:31.068Z,15.90
2023-09-21T19:15:58.106Z,15.90
2023-09-21T19:18:25.352Z,16.00
2023-09-21T19:20:52.451Z,16.10
2023-09-21T19:23:21.549Z,16.10
2023-09-21T19:25:48.554Z,16.10
2023-09-21T19:28:15.639Z,16.00
2023-09-21T19:30:43.558Z,16.00
2023-09-21T19:33:11.466Z,15.90
2023-09-21T19:35:38.526Z,15.90
2023-09-21T19:38:05.685Z,16.00
2023-09-21T19:40:32.786Z,16.00
2023-09-21T19:43:00.154Z,15.90
2023-09-21T19:45:27.427Z,15.80
2023-09-21T19:47:54.679Z,15.80
2023-09-21T19:50:22.257Z,15.80
2023-09-21T19:52:49.726Z,15.90
2023-09-21T19:55:16.690Z,15.80
2023-09-21T19:57:48.590Z,15.90
2023-09-21T20:00:17.674Z,15.80
2023-09-21T20:02:45.311Z,15.60
2023-09-21T20:05:13.287Z,15.60
2023-09-21T20:07:40.510Z,15.60
2023-09-21T20:10:08.076Z,15.60
2023-09-21T20:12:35.275Z,15.60
2023-09-21T20:15:04.939Z,15.50
2023-09-21T20:17:32.692Z,15.50
2023-09-21T20:19:59.810Z,15.50
2023-09-21T20:22:27.625Z,15.50
2023-09-21T20:24:56.096Z,15.50
2023-09-21T20:27:23.493Z,15.50
2023-09-21T20:29:50.641Z,15.60
2023-09-21T20:32:17.762Z,15.60
2023-09-21T20:34:44.753Z,15.50
2023-09-21T20:37:11.972Z,15.50
2023-09-21T20:39:39.283Z,15.50
2023-09-21T20:42:06.754Z,15.40
2023-09-21T20:44:33.970Z,15.40
2023-09-21T20:47:00.974Z,15.40
2023-09-21T20:49:29.731Z,15.40
2023-09-21T20:51:56.704Z,15.40
2023-09-21T20:54:24.386Z,15.20
2023-09-21T20:56:53.423Z,15.20
2023-09-21T20:59:20.489Z,15.20
2023-09-21T21:01:47.611Z,15.20
2023-09-21T21:04:16.400Z,15.30
2023-09-21T21:06:43.961Z,15.20
2023-09-21T21:09:11.895Z,15.30
2023-09-21T21:11:39.459Z,15.20
2023-09-21T21:14:06.434Z,15.20
2023-09-21T21:16:33.508Z,15.30
2023-09-21T21:19:00.596Z,15.20
2023-09-21T21:21:27.703Z,15.20
2023-09-21T21:23:54.622Z,15.20
2023-09-21T21:26:21.517Z,15.10
2023-09-21T21:28:48.411Z,15.10
2023-09-21T21:31:16.221Z,15.00
2023-09-21T21:33:43.525Z,15.00
2023-09-21T21:36:10.606Z,15.00
2023-09-21T21:38:37.637Z,15.10
2023-09-21T21:41:11.047Z,15.00
2023-09-21T21:43:40.499Z,15.10
2023-09-21T21:46:07.939Z,15.10
2023-09-21T21:48:35.369Z,15.00
2023-09-21T21:51:03.179Z,15.10
2023-09-21T21:53:30.450Z,15.10
2023-09-21T21:55:57.709Z,15.10
2023-09-21T21:58:24.754Z,15.10
2023-09-21T22:00:51.902Z,15.00
2023-09-21T22:03:19.613Z,15.20
2023-09-21T22:05:46.989Z,15.20
2023-09-21T22:08:14.190Z,15.20
2023-09-21T22:10:42.955Z,15.30
2023-09-21T22:13:10.836Z,15.40
2023-09-21T22:15:38.663Z,15.40
2023-09-21T22:18:08.311Z,15.40
2023-09-21T22:20:36.386Z,15.40
2023-09-21T22:23:04.625Z,15.30
2023-09-21T22:25:35.240Z,15.30
2023-09-21T22:28:09.425Z,15.30
2023-09-21T22:30:39.959Z,15.40
2023-09-21T22:33:08.003Z,15.40
2023-09-21T22:35:37.684Z,15.50
2023-09-21T22:38:14.967Z,15.50
2023-09-21T22:40:47.281Z,15.30
2023-09-21T22:43:14.268Z,15.30
2023-09-21T22:45:41.383Z,15.30
2023-09-21T22:48:08.484Z,15.30
2023-09-21T22:50:36.618Z,15.30
2023-09-21T22:53:04.322Z,15.40
2023-09-21T22:55:31.726Z,15.50
2023-09-21T22:57:59.191Z,15.50
2023-09-21T23:00:26.449Z,15.60
2023-09-21T23:02:54.552Z,15.60
2023-09-21T23:05:21.720Z,15.50
2023-09-21T23:07:49.319Z,15.50
2023-09-21T23:10:17.444Z,15.50
2023-09-21T23:12:46.219Z,15.60
2023-09-21T23:15:14.871Z,15.70
2023-09-21T23:17:42.879Z,15.70
2023-09-21T23:20:18.654Z,15.60
2023-09-21T23:22:47.544Z,15.70
2023-09-21T23:25:15.897Z,15.70
2023-09-21T23:27:43.384Z,15.60
2023-09-21T23:30:13.972Z,15.70
2023-09-21T23:32:41.357Z,15.70
2023-09-21T23:35:10.022Z,15.80
2023-09-21T23:37:41.543Z,15.70
2023-09-21T23:40:09.864Z,15.60
2023-09-21T23:42:43.168Z,15.70
2023-09-21T23:45:14.812Z,15.60
2023-09-21T23:47:43.265Z,15.60
2023-09-21T23:50:13.519Z,15.50
2023-09-21T23:52:41.785Z,15.60
2023-09-21T23:55:11.384Z,15.70
2023-09-21T23:57:38.956Z,15.60
